Sunday, March 24, 2019, 8:25 PM EDT
Back to Local

KEWB, New Bedford Regional Airport

Location: New Bedford, MA, United States Lat: 41.683
Local Time: 8:25 PM EDT ( 0:25 GMT) Lon: -70.967
Time Zone: US/Eastern Elev: 78 ft

Show me the last for .
Show Coded

Time T Td Feel RH Dir Speed Gust Alt SLP Vis Weather Sky Remarks
2019-03-24 19:53 46 27 38 47 240° 10 21 29.98 29.98 10 CLR 6-hr Min Temp (8pm): 45.0°F
6-hr Max Temp (8pm): 54.0°F
2019-03-24 18:53 46 30 38 53 240° 10 20 29.97 29.97 10 CLR None
2019-03-24 17:53 46 28 38 49 230° 13 22 29.97 29.97 10 CLR None
2019-03-24 16:53 46 27 37 47 210° 14 25 29.98 29.98 10 CLR None
2019-03-24 15:53 46 28 39 49 200° 16 - 29.99 29.99 10 CLR None
2019-03-24 14:53 52 28 - 39 210° 18 - 30.00 30.00 10 CLR None
2019-03-24 13:53 53 30 - 41 190° 16 - 30.02 30.02 10 CLR Wind Shift: 32 min
6-hr Min Temp (2pm): 33.1°F
6-hr Max Temp (2pm): 55.0°F
2019-03-24 12:53 52 20 - 28 280° 16 25 30.04 30.04 10 CLR None
2019-03-24 11:53 49 22 43 34 270° 16 - 30.06 30.06 10 CLR None
2019-03-24 10:53 46 22 41 38 280° 10 - 30.08 30.09 10 CLR None
2019-03-24 09:53 42 21 38 42 Variable 6 - 30.09 30.09 10 CLR None
2019-03-24 08:53 39 21 30 48 280° 10 17 30.09 30.09 10 CLR None
2019-03-24 07:53 33 23 - 66 - Calm - 30.09 30.09 10 CLR 6-hr Min Temp (8am): 25.0°F
6-hr Max Temp (8am): 33.1°F
2019-03-24 06:53 26 19 22 74 200° 3 - 30.08 30.08 10 CLR None
2019-03-24 05:53 27 16 - 62 - Calm - 30.07 30.07 10 CLR None
2019-03-24 04:53 31 16 23 53 280° 8 - 30.05 30.05 10 CLR None
2019-03-24 03:53 32 15 27 49 300° 5 - 30.03 30.03 10 CLR None
2019-03-24 02:53 31 15 23 51 280° 9 - 30.03 30.03 10 CLR None
2019-03-24 01:53 33 16 20 48 290° 17 26 30.02 30.02 10 CLR 6-hr Min Temp (2am): 32.0°F
6-hr Max Temp (2am): 39.9°F
2019-03-24 00:53 33 17 21 51 300° 14 23 29.99 29.99 10 CLR 24-hr Min Temp (1am): 30.9°F
24-hr Max Temp (1am): 46.9°F
2019-03-23 23:53 33 17 21 51 300° 9 21 29.98 29.98 10 CLR None
2019-03-23 22:53 34 17 22 49 290° 14 21 29.96 29.96 10 CLR None
2019-03-23 21:53 36 19 24 49 290° 20 26 29.93 29.93 10 CLR None
2019-03-23 20:53 38 21 27 50 290° 15 22 29.90 29.90 10 CLR None

Support USWX by starting your Amazon purchase here.